Time;durP1;ratioP1;P1;durP2;ratioP2;P2;SDS_P1;SDS_P2;PMS_P1;PMS_P2;Temp;Humidity;BMP_temperature;BMP_pressure;BME280_temperature;BME280_humidity;BME280_pressure;Samples;Min_cycle;Max_cycle;Signal;HPM_P1;HPM_P2
2022/04/10 00:01:56;;;;;;;2.13;1.00;;;;;;;4.57;71.75;101966.06;5102334;28;20036;-77
2022/04/10 00:04:22;;;;;;;4.70;1.17;;;;;;;4.55;71.61;101964.34;5117348;28;20227;-78
2022/04/10 00:06:48;;;;;;;4.03;1.38;;;;;;;4.53;71.51;101963.47;5103866;27;20084;-78
2022/04/10 00:09:14;;;;;;;4.63;1.48;;;;;;;4.52;71.65;101962.59;5093570;28;20035;-78
2022/04/10 00:11:40;;;;;;;4.55;1.60;;;;;;;4.50;71.93;101964.34;5119972;28;20036;-78
2022/04/10 00:14:05;;;;;;;1.52;1.17;;;;;;;4.48;71.96;101968.66;5084992;28;20032;-78
2022/04/10 00:16:30;;;;;;;2.08;1.08;;;;;;;4.47;72.16;101956.53;5101395;28;20057;-78
2022/04/10 00:19:01;;;;;;;6.22;1.23;;;;;;;4.46;72.10;101954.81;5101796;28;20275;-78
2022/04/10 00:21:27;;;;;;;3.33;1.10;;;;;;;4.43;71.96;101953.06;5101510;28;20051;-78
2022/04/10 00:23:53;;;;;;;3.65;1.15;;;;;;;4.42;72.01;101955.66;5103560;27;20039;-78
2022/04/10 00:26:19;;;;;;;5.13;1.40;;;;;;;4.42;72.26;101955.66;5087820;27;20464;-78
2022/04/10 00:28:44;;;;;;;5.95;1.52;;;;;;;4.39;72.10;101946.16;5130000;27;20035;-78
2022/04/10 00:31:10;;;;;;;3.42;1.23;;;;;;;4.38;72.24;101956.50;5122152;27;20039;-78
2022/04/10 00:33:35;;;;;;;3.38;1.15;;;;;;;4.35;72.39;101954.78;5136555;27;20192;-78
2022/04/10 00:36:01;;;;;;;2.45;0.85;;;;;;;4.36;72.46;101953.06;5120075;28;20354;-78
2022/04/10 00:38:27;;;;;;;4.97;1.50;;;;;;;4.35;72.29;101949.59;5124375;27;20035;-78
2022/04/10 00:40:52;;;;;;;2.97;1.30;;;;;;;4.33;72.21;101938.34;5066542;28;20066;-78
2022/04/10 00:43:17;;;;;;;3.00;1.38;;;;;;;4.32;72.34;101952.19;5083840;28;20050;-78
2022/04/10 00:45:43;;;;;;;3.38;1.05;;;;;;;4.31;72.36;101945.28;5101130;28;20043;-78
2022/04/10 00:48:09;;;;;;;2.25;1.33;;;;;;;4.29;72.51;101941.78;5119784;28;20271;-78
2022/04/10 00:50:34;;;;;;;3.47;1.02;;;;;;;4.28;72.27;101950.44;5100995;28;20043;-78
2022/04/10 00:53:00;;;;;;;5.13;1.13;;;;;;;4.27;72.59;101950.44;5101285;28;20027;-78
2022/04/10 00:55:26;;;;;;;1.08;0.95;;;;;;;4.26;72.55;101948.69;5100671;28;20107;-78
2022/04/10 00:57:51;;;;;;;3.40;1.02;;;;;;;4.23;72.58;101947.81;5138890;27;20035;-77
2022/04/10 01:02:42;;;;;;;2.25;0.98;;;;;;;4.20;72.56;101942.66;5116670;28;20342;-78
2022/04/10 01:05:08;;;;;;;3.88;0.98;;;;;;;4.18;72.69;101944.38;5115973;28;20103;-78
2022/04/10 01:07:33;;;;;;;2.65;1.17;;;;;;;4.16;72.76;101945.19;5100592;28;20339;-78
2022/04/10 01:09:59;;;;;;;3.85;1.08;;;;;;;4.15;72.44;101941.75;5103803;27;20039;-78
2022/04/10 01:12:24;;;;;;;2.35;1.00;;;;;;;4.14;72.82;101945.19;5138994;27;20041;-78
2022/04/10 01:14:50;;;;;;;2.50;0.90;;;;;;;4.13;72.82;101947.78;5118996;27;20054;-78
2022/04/10 01:17:16;;;;;;;5.78;1.27;;;;;;;4.12;72.80;101954.69;5138795;27;20035;-78
2022/04/10 01:19:42;;;;;;;2.35;1.08;;;;;;;4.11;72.95;101954.69;5129709;27;20038;-78
2022/04/10 01:22:10;;;;;;;2.42;1.13;;;;;;;4.09;73.14;101957.25;5096309;28;20027;-78
2022/04/10 01:24:37;;;;;;;3.90;1.10;;;;;;;4.08;73.02;101958.16;5102914;28;20335;-78
2022/04/10 01:27:02;;;;;;;1.67;1.10;;;;;;;4.09;73.05;101959.84;5130038;27;20109;-78
2022/04/10 01:29:28;;;;;;;3.25;1.20;;;;;;;4.08;73.11;101962.47;5100262;28;20051;-78
2022/04/10 01:31:54;;;;;;;3.80;1.23;;;;;;;4.08;73.18;101965.06;5102580;27;20031;-78
2022/04/10 01:34:19;;;;;;;2.60;1.00;;;;;;;4.06;73.34;101964.16;5136642;27;20039;-78
2022/04/10 01:36:45;;;;;;;4.05;1.17;;;;;;;4.06;73.06;101969.34;5100597;28;20080;-78
2022/04/10 01:39:12;;;;;;;7.10;1.23;;;;;;;4.03;73.12;101968.47;5099987;28;20227;-78
2022/04/10 01:41:38;;;;;;;4.30;1.20;;;;;;;4.03;73.28;101970.22;5118213;28;20321;-78
2022/04/10 01:44:06;;;;;;;3.80;1.25;;;;;;;4.01;73.28;101966.75;5118384;28;20035;-77
2022/04/10 01:46:32;;;;;;;2.65;1.30;;;;;;;4.01;73.34;101966.75;5099868;28;20102;-78
2022/04/10 01:48:58;;;;;;;2.00;1.10;;;;;;;4.00;73.29;101965.00;5103402;27;20066;-78
2022/04/10 01:51:24;;;;;;;1.45;1.05;;;;;;;3.99;73.36;101969.34;5121232;27;20197;-77
2022/04/10 01:53:51;;;;;;;5.50;1.30;;;;;;;3.99;73.25;101968.47;5100462;28;20043;-78
2022/04/10 01:56:16;;;;;;;2.45;1.40;;;;;;;3.97;73.38;101971.06;5099512;28;20022;-78
2022/04/10 01:58:44;;;;;;;3.90;1.30;;;;;;;3.97;73.28;101975.38;5117246;27;20059;-78
2022/04/10 02:01:11;;;;;;;2.58;1.20;;;;;;;3.95;73.40;101975.38;5106938;28;20039;-78
2022/04/10 02:03:38;;;;;;;3.30;1.05;;;;;;;3.92;73.33;101974.50;5113198;27;20039;-78
2022/04/10 02:06:11;;;;;;;1.90;1.10;;;;;;;3.92;73.33;101969.31;5134682;27;20122;-78
2022/04/10 02:08:37;;;;;;;3.65;1.60;;;;;;;3.92;73.48;101977.09;5122208;28;20094;-78
2022/04/10 02:11:14;;;;;;;4.07;1.17;;;;;;;3.90;73.38;101976.22;5109904;28;20061;-78
2022/04/10 02:13:41;;;;;;;3.33;1.45;;;;;;;3.88;73.33;101970.16;5132214;27;20027;-78
2022/04/10 02:16:10;;;;;;;3.50;0.82;;;;;;;3.85;73.42;101974.44;5115051;28;20023;-78
2022/04/10 02:18:35;;;;;;;2.25;1.33;;;;;;;3.84;73.28;101984.81;5123895;28;20019;-77
2022/04/10 02:21:01;;;;;;;3.63;1.65;;;;;;;3.82;73.34;101978.72;5123416;28;20275;-77
2022/04/10 02:23:27;;;;;;;4.57;1.20;;;;;;;3.81;73.53;101983.06;5123465;28;20027;-77
2022/04/10 02:25:54;;;;;;;1.58;1.17;;;;;;;3.80;73.25;101983.94;5114075;28;20224;-77
2022/04/10 02:28:19;;;;;;;3.90;1.30;;;;;;;3.78;73.53;101983.06;5102892;28;20040;-77
2022/04/10 02:30:44;;;;;;;4.47;1.95;;;;;;;3.77;73.39;101991.69;5129255;28;20070;-77
2022/04/10 02:33:10;;;;;;;1.38;1.00;;;;;;;3.76;73.54;101995.13;5123190;28;20401;-77
2022/04/10 02:35:35;;;;;;;2.33;1.15;;;;;;;3.74;73.35;101986.47;5134685;28;20048;-77
2022/04/10 02:38:01;;;;;;;1.83;1.50;;;;;;;3.73;73.61;101995.13;5123327;28;20031;-77
2022/04/10 02:40:26;;;;;;;4.72;1.80;;;;;;;3.70;73.64;101976.09;5105858;28;20045;-77
2022/04/10 02:42:51;;;;;;;2.00;1.20;;;;;;;3.70;73.46;101982.13;5077785;28;20055;-77
2022/04/10 02:45:17;;;;;;;3.30;1.20;;;;;;;3.68;73.45;101983.00;5103189;28;20059;-77
2022/04/10 02:47:42;;;;;;;4.55;1.60;;;;;;;3.67;73.81;101984.69;5106168;28;20031;-77
2022/04/10 02:50:08;;;;;;;5.50;1.05;;;;;;;3.67;73.63;101986.44;5115628;28;20027;-77
2022/04/10 02:52:33;;;;;;;2.15;1.10;;;;;;;3.65;73.72;101989.88;5136068;28;20379;-77
2022/04/10 02:54:59;;;;;;;2.28;1.05;;;;;;;3.65;73.66;101989.00;5136448;28;20121;-77
2022/04/10 02:57:24;;;;;;;3.92;1.55;;;;;;;3.64;73.66;101979.53;5102148;28;20043;-77
2022/04/10 02:59:50;;;;;;;2.42;1.17;;;;;;;3.63;73.85;101983.81;5100507;28;20047;-77
2022/04/10 03:02:15;;;;;;;2.08;1.17;;;;;;;3.63;73.89;101983.81;5101809;28;20062;-77
2022/04/10 03:04:42;;;;;;;1.60;1.10;;;;;;;3.63;73.84;101983.81;5070074;28;20059;-77
2022/04/10 03:07:07;;;;;;;2.28;0.93;;;;;;;3.63;73.98;101989.00;5072981;28;20073;-77
2022/04/10 03:09:35;;;;;;;3.88;1.40;;;;;;;3.62;73.83;101997.63;5123014;28;20039;-77
2022/04/10 03:12:03;;;;;;;3.20;1.42;;;;;;;3.62;73.97;101999.34;5124272;28;20035;-77
2022/04/10 03:14:28;;;;;;;3.28;1.13;;;;;;;3.61;73.95;102003.66;5105615;28;20072;-77
2022/04/10 03:16:54;;;;;;;4.15;1.15;;;;;;;3.61;74.06;101997.63;5123556;28;20239;-77
2022/04/10 03:19:19;;;;;;;1.90;1.15;;;;;;;3.60;74.04;101995.88;5122865;28;20031;-77
2022/04/10 03:21:44;;;;;;;3.38;1.33;;;;;;;3.58;74.02;101995.88;5108436;28;20099;-77
2022/04/10 03:24:10;;;;;;;1.73;1.33;;;;;;;3.59;74.19;102001.94;5123916;28;20220;-77
2022/04/10 03:26:37;;;;;;;2.50;0.90;;;;;;;3.58;74.06;102007.97;5110316;28;20366;-77
2022/04/10 03:29:02;;;;;;;2.88;1.17;;;;;;;3.56;74.10;102007.94;5106623;28;20075;-77
2022/04/10 03:31:27;;;;;;;1.50;1.20;;;;;;;3.55;74.16;102014.00;5091423;28;20047;-77
2022/04/10 03:33:53;;;;;;;1.85;1.25;;;;;;;3.54;73.97;102014.84;5106270;28;20336;-77
2022/04/10 03:36:18;;;;;;;2.83;1.17;;;;;;;3.53;74.14;102015.72;5105359;28;20339;-77
2022/04/10 03:38:43;;;;;;;1.80;1.35;;;;;;;3.52;74.21;102013.09;5122904;28;20038;-77
2022/04/10 03:41:09;;;;;;;3.38;1.40;;;;;;;3.50;74.31;102013.09;5115593;28;20119;-78
2022/04/10 03:43:35;;;;;;;3.70;1.20;;;;;;;3.50;74.23;102009.66;5123218;28;20024;-77
2022/04/10 03:46:01;;;;;;;3.10;1.20;;;;;;;3.49;74.21;102016.53;5122794;28;20039;-77
2022/04/10 03:48:27;;;;;;;4.43;1.33;;;;;;;3.48;74.46;102014.81;5123372;28;20059;-77
2022/04/10 03:50:53;;;;;;;2.30;1.33;;;;;;;3.47;74.39;102013.06;5123874;28;20227;-77
2022/04/10 03:53:18;;;;;;;3.38;1.15;;;;;;;3.46;74.28;102019.13;5122965;28;20043;-77
2022/04/10 03:55:44;;;;;;;3.88;1.40;;;;;;;3.44;74.41;102016.50;5121285;28;20043;-77
2022/04/10 03:58:09;;;;;;;2.90;1.55;;;;;;;3.43;74.47;102022.53;5105023;28;20040;-77
2022/04/10 04:00:35;;;;;;;3.47;1.42;;;;;;;3.43;74.45;102024.25;5104969;28;20077;-77
2022/04/10 04:03:01;;;;;;;3.55;1.20;;;;;;;3.42;74.37;102022.50;5087870;28;20139;-77
2022/04/10 04:05:27;;;;;;;5.15;1.50;;;;;;;3.40;74.61;102022.53;5101517;28;20036;-77
2022/04/10 04:07:52;;;;;;;3.70;1.40;;;;;;;3.40;74.53;102032.00;5091784;28;20058;-77
2022/04/10 04:10:17;;;;;;;2.13;1.15;;;;;;;3.38;74.43;102033.72;5088295;28;20027;-77
2022/04/10 04:12:43;;;;;;;5.05;1.13;;;;;;;3.37;74.51;102029.41;5087752;28;20098;-77
2022/04/10 04:15:11;;;;;;;3.28;1.20;;;;;;;3.36;74.40;102027.66;5104218;28;20106;-77
2022/04/10 04:17:36;;;;;;;2.65;1.23;;;;;;;3.34;74.52;102032.81;5104321;28;20054;-77
2022/04/10 04:20:03;;;;;;;3.00;1.50;;;;;;;3.33;74.55;102037.97;5087458;28;20278;-77
2022/04/10 04:22:28;;;;;;;1.27;1.15;;;;;;;3.30;74.50;102030.19;5122603;28;20035;-77
2022/04/10 04:24:54;;;;;;;1.63;1.27;;;;;;;3.30;74.63;102036.25;5122627;28;20042;-77
2022/04/10 04:27:19;;;;;;;4.15;1.55;;;;;;;3.30;74.57;102037.97;5070250;28;20265;-77
2022/04/10 04:29:45;;;;;;;1.67;1.10;;;;;;;3.29;74.72;102039.66;5105482;28;20046;-77
2022/04/10 04:32:10;;;;;;;3.30;1.27;;;;;;;3.28;74.71;102050.03;5103853;28;20050;-77
2022/04/10 04:34:35;;;;;;;6.20;1.60;;;;;;;3.26;74.70;102044.84;5122732;28;20038;-77
2022/04/10 04:37:01;;;;;;;1.55;1.13;;;;;;;3.24;74.63;102046.56;5122335;28;20433;-77
2022/04/10 04:39:26;;;;;;;2.65;1.33;;;;;;;3.23;74.70;102056.03;5103492;28;20319;-77
2022/04/10 04:41:51;;;;;;;3.45;1.42;;;;;;;3.22;74.57;102053.41;5087216;28;20054;-77
2022/04/10 04:44:17;;;;;;;3.65;1.27;;;;;;;3.22;74.67;102058.59;5081839;28;20239;-77
2022/04/10 04:46:42;;;;;;;2.20;1.45;;;;;;;3.20;74.81;102058.59;5067932;28;21203;-77
2022/04/10 04:49:08;;;;;;;2.35;1.23;;;;;;;3.19;74.85;102056.00;5100632;28;20044;-77
2022/04/10 04:51:36;;;;;;;2.15;1.10;;;;;;;3.18;74.91;102060.28;5085316;28;20134;-77
2022/04/10 04:54:02;;;;;;;2.67;1.23;;;;;;;3.17;74.94;102061.16;5120836;28;20370;-77
2022/04/10 04:56:27;;;;;;;4.53;1.27;;;;;;;3.17;74.87;102070.66;5115059;28;20024;-77
2022/04/10 04:58:53;;;;;;;3.45;1.30;;;;;;;3.16;74.82;102063.72;5102156;28;20173;-77
2022/04/10 05:01:18;;;;;;;2.53;1.67;;;;;;;3.14;75.08;102065.44;5101659;28;20031;-77
2022/04/10 05:03:44;;;;;;;4.10;1.42;;;;;;;3.12;74.81;102065.41;5085731;28;20079;-77
2022/04/10 05:06:09;;;;;;;2.20;1.25;;;;;;;3.11;74.97;102065.38;5088912;28;20058;-77
2022/04/10 05:08:35;;;;;;;3.08;1.27;;;;;;;3.10;75.08;102067.13;5084852;28;20043;-77
2022/04/10 05:11:00;;;;;;;2.28;1.08;;;;;;;3.09;75.06;102067.97;5118297;28;20096;-77
2022/04/10 05:13:26;;;;;;;3.13;1.05;;;;;;;3.10;75.13;102082.66;5105768;28;20028;-77
2022/04/10 05:15:52;;;;;;;1.48;1.15;;;;;;;3.10;75.15;102077.47;5120136;28;20479;-77
2022/04/10 05:18:19;;;;;;;3.75;1.35;;;;;;;3.11;75.29;102079.22;5108017;28;20035;-77
2022/04/10 05:20:47;;;;;;;2.88;1.55;;;;;;;3.11;75.27;102083.50;5101783;28;20335;-77
2022/04/10 05:23:17;;;;;;;1.73;1.00;;;;;;;3.11;75.29;102079.22;5119221;28;20098;-77
2022/04/10 05:25:42;;;;;;;1.95;1.15;;;;;;;3.11;75.47;102096.44;5120458;28;20077;-77
2022/04/10 05:28:08;;;;;;;2.92;1.35;;;;;;;3.12;75.36;102093.03;5091914;28;20031;-77
2022/04/10 05:30:33;;;;;;;3.60;1.33;;;;;;;3.12;75.49;102093.03;5102064;28;20095;-77
2022/04/10 05:32:59;;;;;;;3.08;1.20;;;;;;;3.11;75.32;102094.75;5119945;28;20039;-77
2022/04/10 05:35:25;;;;;;;2.60;1.35;;;;;;;3.12;75.55;102096.47;5119372;28;20038;-77
2022/04/10 05:37:51;;;;;;;1.50;1.10;;;;;;;3.12;75.60;102095.63;5119418;28;20035;-77
2022/04/10 05:40:16;;;;;;;3.50;1.13;;;;;;;3.12;75.61;102099.06;5119535;28;20117;-77
2022/04/10 05:42:45;;;;;;;4.85;1.23;;;;;;;3.13;75.58;102108.59;5120090;28;20042;-77
2022/04/10 05:45:11;;;;;;;3.33;0.98;;;;;;;3.14;75.58;102112.03;5119811;28;20323;-77
2022/04/10 05:47:38;;;;;;;3.03;1.40;;;;;;;3.14;75.74;102109.44;5117956;28;20093;-77
2022/04/10 05:50:04;;;;;;;1.50;1.20;;;;;;;3.15;75.76;102112.03;5118076;28;20103;-77
2022/04/10 05:52:29;;;;;;;1.90;1.20;;;;;;;3.16;75.85;102108.59;5103230;27;20338;-77
2022/04/10 05:55:01;;;;;;;2.60;1.23;;;;;;;3.18;76.02;102114.66;5122367;27;20046;-77
2022/04/10 05:57:26;;;;;;;1.80;1.25;;;;;;;3.20;76.00;102119.84;5090101;28;20044;-77
2022/04/10 05:59:52;;;;;;;1.50;0.90;;;;;;;3.21;76.11;102119.88;5084273;28;20066;-77
2022/04/10 06:02:17;;;;;;;1.55;1.08;;;;;;;3.23;76.39;102117.31;5084589;28;20042;-77
2022/04/10 06:04:43;;;;;;;3.30;1.23;;;;;;;3.26;76.37;102130.28;5087846;28;20364;-77
2022/04/10 06:07:08;;;;;;;1.20;1.10;;;;;;;3.27;76.73;102132.00;5083938;28;20036;-77
2022/04/10 06:09:34;;;;;;;1.90;0.93;;;;;;;3.29;76.56;102129.44;5068328;28;20027;-77
2022/04/10 06:11:59;;;;;;;1.70;0.90;;;;;;;3.31;76.58;102136.38;5104347;28;20039;-77
2022/04/10 06:14:24;;;;;;;3.05;1.38;;;;;;;3.32;76.67;102142.44;5110249;28;20076;-77
2022/04/10 06:16:50;;;;;;;3.28;1.10;;;;;;;3.35;76.66;102137.28;5101677;28;20034;-77
2022/04/10 06:19:16;;;;;;;1.27;0.98;;;;;;;3.37;77.03;102148.53;5096130;28;20039;-77
2022/04/10 06:21:41;;;;;;;1.40;0.95;;;;;;;3.38;77.01;102148.50;5100448;28;20043;-77
2022/04/10 06:24:07;;;;;;;1.88;1.05;;;;;;;3.41;77.21;102147.69;5084223;28;20103;-77
2022/04/10 06:26:33;;;;;;;2.58;1.40;;;;;;;3.42;77.33;102150.31;5083394;28;20080;-77
2022/04/10 06:28:58;;;;;;;2.28;1.00;;;;;;;3.44;77.44;102151.19;5100534;28;20035;-77
2022/04/10 06:31:24;;;;;;;1.00;1.00;;;;;;;3.47;77.58;102152.91;5115215;28;20068;-77
2022/04/10 06:33:50;;;;;;;2.97;1.50;;;;;;;3.50;77.71;102155.56;5097174;28;20160;-77
2022/04/10 06:36:16;;;;;;;5.38;1.25;;;;;;;3.51;77.94;102151.22;5076396;28;20056;-77
2022/04/10 06:38:41;;;;;;;3.50;1.65;;;;;;;3.55;77.92;102158.19;5100603;28;20227;-77
2022/04/10 06:41:07;;;;;;;2.17;1.23;;;;;;;3.55;77.86;102161.66;5094180;28;20358;-77
2022/04/10 06:43:32;;;;;;;4.88;1.77;;;;;;;3.59;78.29;102163.41;5112711;28;20039;-77
2022/04/10 06:45:58;;;;;;;5.45;1.63;;;;;;;3.61;78.20;102163.44;5080691;28;20035;-77
2022/04/10 06:48:23;;;;;;;5.13;1.50;;;;;;;3.63;78.64;102167.75;5103490;28;20108;-77
2022/04/10 06:50:49;;;;;;;4.32;1.40;;;;;;;3.68;78.58;102169.53;5102981;28;20040;-77
2022/04/10 06:53:15;;;;;;;1.65;1.15;;;;;;;3.71;78.79;102173.03;5103067;28;20039;-77
2022/04/10 06:55:40;;;;;;;5.03;1.73;;;;;;;3.77;78.84;102173.06;5120911;28;20031;-77
2022/04/10 06:58:05;;;;;;;5.38;1.30;;;;;;;3.80;78.85;102180.88;5080013;28;20343;-77
2022/04/10 07:00:32;;;;;;;3.33;1.27;;;;;;;3.87;78.88;102175.75;5100872;28;20052;-77
2022/04/10 07:03:01;;;;;;;1.60;1.00;;;;;;;3.92;79.11;102176.66;5103574;28;20224;-77
2022/04/10 07:05:27;;;;;;;6.30;1.63;;;;;;;3.96;79.18;102184.44;5119552;28;20066;-77
2022/04/10 07:07:52;;;;;;;5.68;1.38;;;;;;;4.00;79.22;102181.06;5104201;28;20043;-77
2022/04/10 07:10:17;;;;;;;5.38;1.58;;;;;;;4.07;79.60;102187.13;5102808;28;20028;-77
2022/04/10 07:12:43;;;;;;;3.83;1.40;;;;;;;4.13;79.44;102188.91;5103197;28;20035;-77
2022/04/10 07:15:08;;;;;;;5.55;1.45;;;;;;;4.16;79.06;102187.19;5069468;28;20035;-77
2022/04/10 07:17:34;;;;;;;7.15;1.38;;;;;;;4.23;78.96;102191.59;5102623;28;20039;-77
2022/04/10 07:19:59;;;;;;;6.65;1.20;;;;;;;4.30;78.44;102192.50;5121030;28;20104;-77
2022/04/10 07:25:09;;;;;;;6.30;1.60;;;;;;;4.44;77.99;102197.78;5122056;28;20045;-77
2022/04/10 07:27:34;;;;;;;15.10;1.92;;;;;;;4.52;79.09;102195.25;5102219;28;20023;-77
2022/04/10 07:30:01;;;;;;;4.03;1.70;;;;;;;4.55;80.19;102200.47;5082963;28;20343;-77
2022/04/10 07:32:26;;;;;;;4.95;1.77;;;;;;;4.57;80.43;102201.34;5098744;28;20042;-77
2022/04/10 07:34:51;;;;;;;4.95;1.48;;;;;;;4.62;80.45;102204.81;5085391;28;20032;-77
2022/04/10 07:37:17;;;;;;;11.82;1.52;;;;;;;4.66;80.50;102214.34;5068648;28;20066;-77
2022/04/10 07:39:42;;;;;;;6.15;2.03;;;;;;;4.72;80.23;102216.97;5096748;28;20114;-77
2022/04/10 07:42:09;;;;;;;7.78;1.40;;;;;;;4.75;80.17;102216.16;5065572;28;20032;-77
2022/04/10 07:44:34;;;;;;;4.60;1.20;;;;;;;4.81;80.80;102224.81;5100447;28;20076;-77
2022/04/10 07:49:44;;;;;;;7.72;1.30;;;;;;;4.90;79.36;102220.53;5100674;27;20099;-77
2022/04/10 07:52:10;;;;;;;3.78;1.10;;;;;;;4.94;79.22;102230.06;5104685;27;20323;-77
2022/04/10 07:54:35;;;;;;;3.47;1.45;;;;;;;4.96;78.75;102223.16;5088288;28;20342;-77
2022/04/10 07:57:02;;;;;;;3.85;1.02;;;;;;;5.01;78.65;102218.84;5105189;28;20354;-77
2022/04/10 07:59:27;;;;;;;5.72;1.05;;;;;;;5.06;78.25;102224.94;5088378;27;20056;-77
2022/04/10 08:01:52;;;;;;;5.13;1.10;;;;;;;5.13;77.80;102231.00;5102342;28;20048;-77
2022/04/10 08:04:18;;;;;;;3.78;1.20;;;;;;;5.19;77.68;102234.50;5073051;27;20027;-77
2022/04/10 08:06:43;;;;;;;0.77;0.50;;;;;;;5.24;71.90;102237.16;5107383;27;20031;-77
2022/04/10 08:09:09;;;;;;;2.35;0.70;;;;;;;5.26;72.02;102235.41;5112630;27;20129;-77
2022/04/10 08:11:35;;;;;;;3.85;0.85;;;;;;;5.31;70.72;102249.28;5109483;27;20341;-77
2022/04/10 08:14:00;;;;;;;2.70;0.90;;;;;;;5.30;66.32;102251.88;5106885;27;20039;-77
2022/04/10 08:16:26;;;;;;;3.92;1.33;;;;;;;5.31;67.57;102253.59;5112957;28;20062;-77
2022/04/10 08:18:52;;;;;;;0.57;0.40;;;;;;;5.32;67.14;102247.56;5081758;28;20053;-77
2022/04/10 08:21:18;;;;;;;2.92;1.20;;;;;;;5.31;66.51;102251.91;5116645;28;20043;-77
2022/04/10 08:23:43;;;;;;;5.55;1.13;;;;;;;5.33;67.46;102252.75;5101900;28;20100;-77
2022/04/10 08:26:09;;;;;;;0.85;0.80;;;;;;;5.37;68.17;102251.91;5100086;28;20032;-77
2022/04/10 08:28:35;;;;;;;2.03;0.60;;;;;;;5.38;69.02;102253.66;5083944;28;20300;-77
2022/04/10 08:31:00;;;;;;;1.90;0.52;;;;;;;5.44;65.79;102263.19;5116012;28;20117;-77
2022/04/10 08:33:25;;;;;;;5.78;0.85;;;;;;;5.47;67.87;102249.34;5082524;28;20053;-77
2022/04/10 08:35:51;;;;;;;1.45;0.60;;;;;;;5.50;66.50;102251.94;5099885;28;20032;-77
2022/04/10 08:38:16;;;;;;;5.80;1.02;;;;;;;5.56;65.97;102262.34;5079960;28;20030;-77
2022/04/10 08:40:44;;;;;;;6.68;0.77;;;;;;;5.58;65.74;102261.50;5080384;28;20092;-77
2022/04/10 08:43:11;;;;;;;3.40;0.90;;;;;;;5.64;65.62;102259.75;5098929;28;20028;-77
2022/04/10 08:45:38;;;;;;;3.28;0.90;;;;;;;5.73;65.48;102262.38;5114349;28;20043;-77
2022/04/10 08:48:05;;;;;;;8.20;1.00;;;;;;;5.81;64.78;102262.44;5099444;28;20055;-77
2022/04/10 08:50:30;;;;;;;3.85;0.90;;;;;;;5.83;63.96;102263.28;5117050;28;20309;-77
2022/04/10 08:52:57;;;;;;;3.58;0.75;;;;;;;5.87;64.53;102260.69;5098392;28;20080;-77
2022/04/10 08:55:23;;;;;;;0.90;0.57;;;;;;;5.93;63.71;102258.13;5097472;28;20023;-77
2022/04/10 08:57:48;;;;;;;2.65;0.45;;;;;;;5.96;64.37;102259.88;5098810;28;20104;-77
2022/04/10 09:00:16;;;;;;;1.35;0.70;;;;;;;5.98;64.11;102252.06;5079766;28;20062;-77
2022/04/10 09:02:49;;;;;;;2.17;0.63;;;;;;;6.02;64.17;102259.00;5097407;28;20310;-77
2022/04/10 09:05:22;;;;;;;3.90;0.88;;;;;;;6.05;64.04;102253.81;5092435;28;20134;-77
2022/04/10 09:08:23;;;;;;;1.65;0.73;;;;;;;6.07;65.01;102257.28;5110882;27;20128;-77
2022/04/10 09:11:02;;;;;;;1.75;0.70;;;;;;;6.08;65.08;102252.09;5027867;28;20031;-77
2022/04/10 09:13:48;;;;;;;1.55;0.57;;;;;;;6.14;63.74;102253.81;5102845;27;20043;-77
2022/04/10 09:16:25;;;;;;;1.27;0.70;;;;;;;6.15;64.82;102255.56;5092615;28;20024;-77
2022/04/10 09:19:00;;;;;;;1.50;0.65;;;;;;;6.23;64.45;102256.41;5094529;28;20376;-77
2022/04/10 09:21:30;;;;;;;2.60;1.00;;;;;;;6.26;64.05;102256.44;5117903;28;20027;-77
2022/04/10 09:24:10;;;;;;;4.72;0.70;;;;;;;6.31;62.85;102259.00;5094272;28;20580;-77
2022/04/10 09:26:46;;;;;;;2.55;0.68;;;;;;;6.37;62.79;102265.94;5091778;28;20035;-77
2022/04/10 09:29:12;;;;;;;3.10;0.90;;;;;;;6.34;63.48;102266.81;5120070;27;20042;-77
2022/04/10 09:31:38;;;;;;;1.98;0.70;;;;;;;6.32;63.84;102264.22;5140141;27;20044;-77
2022/04/10 09:34:06;;;;;;;2.10;0.70;;;;;;;6.33;64.19;102275.50;5116012;27;20044;-77
2022/04/10 09:36:39;;;;;;;5.50;0.73;;;;;;;6.36;63.42;102272.91;5110321;27;20526;-77
2022/04/10 09:39:29;;;;;;;3.25;0.70;;;;;;;6.42;61.72;102269.41;5101519;28;20051;-77
2022/04/10 09:42:06;;;;;;;1.35;0.85;;;;;;;6.47;62.71;102260.75;5113660;28;20058;-77
2022/04/10 09:44:36;;;;;;;3.35;0.77;;;;;;;6.52;62.88;102266.81;5093026;27;20584;-77
2022/04/10 09:47:07;;;;;;;1.52;0.70;;;;;;;6.55;62.43;102260.75;5107516;28;20066;-77
2022/04/10 09:49:33;;;;;;;3.88;0.57;;;;;;;6.59;63.67;102264.22;5132509;27;20438;-77
2022/04/10 09:52:06;;;;;;;1.92;0.77;;;;;;;6.68;63.26;102257.25;5082802;28;20088;-77
2022/04/10 09:54:42;;;;;;;0.40;0.40;;;;;;;6.70;63.74;102254.66;5098918;28;20596;-77
2022/04/10 09:57:15;;;;;;;1.08;0.77;;;;;;;6.77;63.18;102265.91;5082442;28;20027;-77
2022/04/10 09:59:43;;;;;;;1.63;0.80;;;;;;;6.86;61.81;102268.50;5092915;28;20368;-77
2022/04/10 10:02:13;;;;;;;0.63;0.47;;;;;;;6.84;61.73;102259.81;5118909;28;20027;-77
2022/04/10 10:04:39;;;;;;;3.75;0.90;;;;;;;6.85;62.37;102274.56;5115130;28;20102;-77
2022/04/10 10:07:16;;;;;;;2.92;0.90;;;;;;;6.84;59.94;102263.31;5083770;28;20460;-77
2022/04/10 10:09:42;;;;;;;5.63;0.98;;;;;;;6.87;62.57;102265.03;5109226;28;20038;-77
2022/04/10 10:12:09;;;;;;;3.95;1.10;;;;;;;6.87;60.94;102267.63;5093944;28;20183;-77
2022/04/10 10:14:36;;;;;;;5.70;0.85;;;;;;;6.93;60.59;102262.41;5098072;28;20031;-77
2022/04/10 10:17:03;;;;;;;1.85;0.60;;;;;;;6.95;59.80;102265.88;5091338;28;20346;-77
2022/04/10 10:19:30;;;;;;;1.92;1.05;;;;;;;6.99;60.06;102264.13;5109369;28;20047;-77
2022/04/10 10:21:55;;;;;;;1.77;0.65;;;;;;;7.06;60.53;102269.31;5093953;28;20282;-77
2022/04/10 10:24:26;;;;;;;1.50;0.70;;;;;;;7.10;60.04;102258.00;5112404;28;20052;-77
2022/04/10 10:27:07;;;;;;;1.95;0.90;;;;;;;7.11;59.33;102258.88;5117655;28;20039;-77
2022/04/10 10:29:51;;;;;;;1.23;0.80;;;;;;;7.13;60.71;102264.06;5094835;28;20027;-77
2022/04/10 10:32:56;;;;;;;4.63;1.00;;;;;;;7.15;60.10;102263.22;5097192;28;20027;-77
2022/04/10 10:35:31;;;;;;;1.52;0.60;;;;;;;7.21;61.16;102257.09;5072193;28;20027;-77
2022/04/10 10:37:57;;;;;;;2.15;0.80;;;;;;;7.27;61.15;102260.53;5096000;28;20028;-77
2022/04/10 10:40:22;;;;;;;7.88;1.13;;;;;;;7.33;60.21;102261.38;5081796;28;20346;-77
2022/04/10 10:42:50;;;;;;;1.50;0.70;;;;;;;7.37;60.03;102270.91;5097215;28;20585;-77
2022/04/10 10:45:36;;;;;;;5.25;1.17;;;;;;;7.42;58.18;102256.13;5111800;28;20031;-77
2022/04/10 10:48:23;;;;;;;4.68;1.02;;;;;;;7.43;59.92;102273.50;5116904;28;20043;-77
2022/04/10 10:50:53;;;;;;;3.72;0.82;;;;;;;7.44;60.37;102264.81;5100823;28;20020;-77
2022/04/10 10:53:55;;;;;;;1.45;0.70;;;;;;;7.48;60.37;102267.41;5117729;28;20035;-77
2022/04/10 10:56:31;;;;;;;4.68;0.75;;;;;;;7.49;59.37;102270.88;5115847;28;20040;-77
2022/04/10 10:59:19;;;;;;;2.10;1.00;;;;;;;7.55;58.97;102268.25;5118275;28;20100;-77
2022/04/10 11:01:51;;;;;;;;;;;;;;;7.57;60.37;102255.22;5105509;28;20039;-77
2022/04/10 11:04:19;;;;;;;2.47;0.70;;;;;;;7.63;61.16;102255.16;5098680;28;19915;-77
2022/04/10 11:06:50;;;;;;;3.10;0.95;;;;;;;7.67;59.94;102249.03;5097788;28;20036;-77
2022/04/10 11:09:23;;;;;;;8.60;0.73;;;;;;;7.71;62.00;102252.50;5093711;28;20110;-77
2022/04/10 11:11:50;;;;;;;6.38;1.55;;;;;;;7.69;61.26;102247.28;5096095;28;20035;-77
2022/04/10 11:14:35;;;;;;;0.88;0.55;;;;;;;7.69;61.42;102242.97;5095962;28;20336;-77
2022/04/10 11:17:28;;;;;;;4.25;0.88;;;;;;;7.73;58.29;102248.13;5115843;28;20350;-77
2022/04/10 11:20:15;;;;;;;1.73;1.20;;;;;;;7.78;58.88;102244.63;5093492;28;20035;-77
2022/04/10 11:22:48;;;;;;;3.40;0.98;;;;;;;7.84;59.66;102243.72;5091656;28;20099;-77
2022/04/10 11:25:17;;;;;;;1.20;0.75;;;;;;;7.91;57.31;102240.19;5118632;28;20286;-77
2022/04/10 11:28:10;;;;;;;5.07;0.90;;;;;;;7.97;58.68;102237.56;5121322;28;20330;-77
2022/04/10 11:30:41;;;;;;;5.70;1.25;;;;;;;8.00;56.75;102232.28;5102728;28;20140;-77
2022/04/10 11:33:10;;;;;;;2.40;0.60;;;;;;;8.05;59.48;102229.66;5097876;28;20036;-77
2022/04/10 11:35:38;;;;;;;1.25;0.63;;;;;;;8.10;57.46;102227.03;5095734;28;20358;-77
2022/04/10 11:38:12;;;;;;;2.88;0.80;;;;;;;8.12;55.32;102218.28;5097629;28;20225;-77
2022/04/10 11:40:42;;;;;;;1.45;0.68;;;;;;;8.13;56.41;102226.97;5111444;28;20031;-77
2022/04/10 11:43:08;;;;;;;4.30;1.17;;;;;;;8.10;55.97;102225.28;5103746;28;20028;-77
2022/04/10 11:45:35;;;;;;;1.92;0.90;;;;;;;8.07;54.91;102220.06;5102363;28;20040;-77